Terminal Aerodrome Forecast
Issued by NWS

Home | Current Version | Previous Version | Text Only | Print | Product List | Glossary On
Versions: 1 2 3 4 5 6 7 8 9 10 11 12 13 14 15 16 17
000
FTUS46 KEKA 020538
TAFCEC
TAF
KCEC 020538Z 0206/0306 34014G24KT P6SM BKN250
     FM020900 35008G16KT P6SM SCT050 BKN100 BKN250
     FM021200 36007KT 6SM BR VCSH FEW035 BKN050 OVC100
     FM021800 34012KT P6SM SCT050 SCT100 BKN250
     FM022100 34016G26KT P6SM FEW100 SCT250=

USA.gov is the U.S. government's official web portal to all federal, state and local government web resources and services.